Time;durP1;ratioP1;P1;durP2;ratioP2;P2;SDS_P1;SDS_P2;PMS_P1;PMS_P2;Temp;Humidity;BMP_temperature;BMP_pressure;BME280_temperature;BME280_humidity;BME280_pressure;Samples;Min_cycle;Max_cycle;Signal;HPM_P1;HPM_P2
2023/10/15 00:00:15;;;;;;;0.40;0.25;;;8.00;99.90;;;;;;5015833;28;20296;-82
2023/10/15 00:02:42;;;;;;;0.40;0.20;;;7.90;99.90;;;;;;5017746;28;20296;-84
2023/10/15 00:05:15;;;;;;;0.40;0.25;;;7.90;99.90;;;;;;5017388;28;20205;-81
2023/10/15 00:07:40;;;;;;;0.40;0.25;;;7.80;99.90;;;;;;5012823;28;20182;-77
2023/10/15 00:10:10;;;;;;;0.40;0.30;;;7.80;99.90;;;;;;5021500;28;20431;-82
2023/10/15 00:12:37;;;;;;;0.40;0.20;;;7.80;99.90;;;;;;5021701;28;20189;-80
2023/10/15 00:15:05;;;;;;;4.28;1.75;;;7.80;99.90;;;;;;5027022;28;20267;-80
2023/10/15 00:17:30;;;;;;;0.40;0.30;;;7.80;99.90;;;;;;5032665;28;20189;-80
2023/10/15 00:19:56;;;;;;;0.40;0.20;;;;;;;;;;5027970;28;20245;-78
2023/10/15 00:22:22;;;;;;;0.50;0.50;;;7.70;99.90;;;;;;5034078;28;20250;-83
2023/10/15 00:24:47;;;;;;;0.30;0.20;;;7.70;99.90;;;;;;5023054;28;20272;-81
2023/10/15 00:27:15;;;;;;;0.40;0.30;;;7.80;99.90;;;;;;5021137;28;20184;-83
2023/10/15 00:29:41;;;;;;;0.40;0.20;;;7.80;99.90;;;;;;5032317;28;21290;-80
2023/10/15 00:32:06;;;;;;;0.60;0.60;;;10.20;99.90;;;;;;5014303;28;20344;-81
2023/10/15 00:34:32;;;;;;;0.40;0.30;;;7.90;99.90;;;;;;5036611;28;20186;-80
2023/10/15 00:36:57;;;;;;;0.40;0.30;;;8.00;99.90;;;;;;5023421;28;20218;-81
2023/10/15 00:39:23;;;;;;;0.60;0.60;;;8.10;99.90;;;;;;5029001;28;20201;-81
2023/10/15 00:41:49;;;;;;;0.40;0.30;;;9.80;99.90;;;;;;5022351;28;20311;-81
2023/10/15 00:44:16;;;;;;;0.40;0.30;;;8.20;99.90;;;;;;5037817;28;20197;-83
2023/10/15 00:46:44;;;;;;;0.40;0.20;;;8.30;99.90;;;;;;5021713;28;20214;-82
2023/10/15 00:49:12;;;;;;;0.38;0.20;;;8.40;99.90;;;;;;5023683;28;20201;-81
2023/10/15 00:51:40;;;;;;;0.60;0.60;;;8.50;99.90;;;;;;5026819;28;20190;-80
2023/10/15 00:54:11;;;;;;;0.40;0.20;;;8.60;99.90;;;;;;5036544;28;20190;-81
2023/10/15 00:56:38;;;;;;;0.63;0.60;;;8.60;99.90;;;;;;5018206;28;20573;-80
2023/10/15 00:59:16;;;;;;;0.40;0.30;;;8.70;99.90;;;;;;5018887;28;20202;-79
2023/10/15 01:04:41;;;;;;;0.40;0.40;;;8.80;99.90;;;;;;4975705;28;20205;-82
2023/10/15 01:10:18;;;;;;;0.40;0.20;;;8.90;99.90;;;;;;4937630;28;20259;-82
2023/10/15 01:12:43;;;;;;;0.40;0.20;;;8.90;99.90;;;;;;5008840;28;20207;-79
2023/10/15 01:15:09;;;;;;;0.40;0.30;;;8.90;99.90;;;;;;5019197;28;20209;-78
2023/10/15 01:17:37;;;;;;;0.40;0.20;;;9.00;99.90;;;;;;5027621;28;20204;-84
2023/10/15 01:20:09;;;;;;;0.40;0.20;;;9.00;99.90;;;;;;5025159;28;20276;-83
2023/10/15 01:22:39;;;;;;;0.40;0.30;;;9.00;99.90;;;;;;5029893;28;21162;-79
2023/10/15 01:25:19;;;;;;;0.40;0.30;;;9.00;99.90;;;;;;5028389;28;20206;-81
2023/10/15 01:27:45;;;;;;;0.40;0.20;;;9.00;99.90;;;;;;5035093;28;20186;-80
2023/10/15 01:30:17;;;;;;;0.40;0.20;;;9.00;99.90;;;;;;5018886;28;20201;-78
2023/10/15 01:32:44;;;;;;;0.40;0.20;;;9.00;99.90;;;;;;5023337;28;20440;-81
2023/10/15 01:35:10;;;;;;;0.40;0.20;;;9.00;99.90;;;;;;5016985;28;20212;-81
2023/10/15 01:37:44;;;;;;;0.40;0.20;;;9.00;99.90;;;;;;5017043;28;20220;-83
2023/10/15 01:42:40;;;;;;;0.40;0.30;;;9.00;99.90;;;;;;5022808;28;20318;-80
2023/10/15 01:50:23;;;;;;;0.40;0.20;;;9.10;99.90;;;;;;5020599;28;20226;-79
2023/10/15 01:53:01;;;;;;;0.40;0.30;;;9.20;99.90;;;;;;5028495;28;20191;-81
2023/10/15 01:55:29;;;;;;;0.52;0.50;;;9.20;99.90;;;;;;5022857;28;20197;-77
2023/10/15 01:58:00;;;;;;;0.40;0.20;;;9.30;99.90;;;;;;5020196;28;20253;-79
2023/10/15 02:03:07;;;;;;;0.40;0.30;;;9.40;99.90;;;;;;5020695;28;20186;-76
2023/10/15 02:05:42;;;;;;;0.40;0.20;;;9.40;99.90;;;;;;5036094;28;20267;-77
2023/10/15 02:08:24;;;;;;;0.40;0.30;;;9.40;99.90;;;;;;5024622;28;20193;-83
2023/10/15 02:10:52;;;;;;;0.40;0.20;;;9.40;99.90;;;;;;5038502;28;20190;-82
2023/10/15 02:13:19;;;;;;;0.40;0.30;;;9.10;99.90;;;;;;5021209;28;20189;-77
2023/10/15 02:15:46;;;;;;;0.40;0.20;;;9.40;99.90;;;;;;5021507;28;20225;-83
2023/10/15 02:18:17;;;;;;;0.40;0.20;;;9.40;99.90;;;;;;5016742;28;20312;-79
2023/10/15 02:20:47;;;;;;;0.40;0.20;;;9.40;99.90;;;;;;5025918;28;20191;-78
2023/10/15 02:23:18;;;;;;;0.40;0.30;;;9.40;99.90;;;;;;5025373;28;20185;-80
2023/10/15 02:25:48;;;;;;;0.40;0.30;;;9.40;99.90;;;;;;5022581;28;20209;-78
2023/10/15 02:28:20;;;;;;;0.40;0.20;;;9.40;99.90;;;;;;5021661;28;20230;-78
2023/10/15 02:30:48;;;;;;;0.68;0.60;;;9.30;99.90;;;;;;5016027;28;20186;-83
2023/10/15 02:33:17;;;;;;;0.68;0.60;;;9.30;99.90;;;;;;5022835;28;20240;-78
2023/10/15 02:35:47;;;;;;;0.50;0.40;;;9.30;99.90;;;;;;5020552;28;20215;-82
2023/10/15 02:38:13;;;;;;;0.40;0.20;;;9.30;99.90;;;;;;5040448;28;20946;-80
2023/10/15 02:41:03;;;;;;;0.40;0.20;;;9.30;99.90;;;;;;5038296;28;20185;-80
2023/10/15 02:43:29;;;;;;;0.40;0.20;;;;;;;;;;5021346;28;20181;-78
2023/10/15 02:46:00;;;;;;;0.40;0.30;;;9.20;99.90;;;;;;5018458;28;20404;-80
2023/10/15 02:48:26;;;;;;;0.50;0.50;;;9.20;99.90;;;;;;5020254;28;20210;-83
2023/10/15 02:51:07;;;;;;;0.40;0.20;;;9.20;99.90;;;;;;5019061;28;20293;-84
2023/10/15 02:53:38;;;;;;;0.40;0.25;;;9.30;99.90;;;;;;5016689;28;20822;-79
2023/10/15 02:56:12;;;;;;;0.40;0.20;;;9.30;99.90;;;;;;5019662;28;20268;-82
2023/10/15 02:58:39;;;;;;;0.40;0.30;;;9.50;99.90;;;;;;5019856;28;20200;-80
2023/10/15 03:01:17;;;;;;;0.40;0.20;;;9.60;99.90;;;;;;5028912;28;20220;-82
2023/10/15 03:03:48;;;;;;;0.40;0.20;;;9.60;99.90;;;;;;5020411;28;20193;-82
2023/10/15 03:06:31;;;;;;;0.40;0.30;;;;;;;;;;5012397;28;20300;-83
2023/10/15 03:08:56;;;;;;;0.40;0.30;;;9.60;99.90;;;;;;5032299;28;20236;-79
2023/10/15 03:11:24;;;;;;;0.40;0.20;;;9.70;99.90;;;;;;5031175;28;20194;-80
2023/10/15 03:13:56;;;;;;;0.47;0.40;;;9.60;99.90;;;;;;5025916;28;20185;-81
2023/10/15 03:16:24;;;;;;;0.40;0.20;;;9.60;99.90;;;;;;5021127;28;20204;-78
2023/10/15 03:18:50;;;;;;;0.40;0.28;;;9.70;99.90;;;;;;5021453;28;20178;-81
2023/10/15 03:21:26;;;;;;;0.40;0.20;;;9.80;99.90;;;;;;5023390;28;20967;-84
2023/10/15 03:24:04;;;;;;;0.40;0.20;;;9.90;99.90;;;;;;5027050;28;20193;-79
2023/10/15 03:26:32;;;;;;;0.40;0.20;;;9.90;99.90;;;;;;5028333;28;20459;-82
2023/10/15 03:28:59;;;;;;;0.40;0.30;;;9.90;99.90;;;;;;5029901;28;20205;-81
2023/10/15 03:31:27;;;;;;;0.40;0.20;;;9.70;99.90;;;;;;5024885;28;20193;-82
2023/10/15 03:34:14;;;;;;;0.40;0.30;;;9.90;99.90;;;;;;5019335;28;20197;-82
2023/10/15 03:36:57;;;;;;;0.40;0.30;;;9.90;99.90;;;;;;5019026;28;20211;-83
2023/10/15 03:39:53;;;;;;;0.40;0.20;;;9.80;99.90;;;;;;5017299;28;20181;-78
2023/10/15 03:44:44;;;;;;;0.40;0.20;;;9.70;99.90;;;;;;5016116;28;20190;-79
2023/10/15 03:47:15;;;;;;;0.40;0.30;;;9.60;99.90;;;;;;5015207;28;20189;-80
2023/10/15 03:49:46;;;;;;;0.60;0.45;;;9.50;99.90;;;;;;5015679;28;20505;-80
2023/10/15 03:52:20;;;;;;;0.40;0.20;;;9.40;99.90;;;;;;5017504;28;20197;-79
2023/10/15 03:54:52;;;;;;;0.40;0.30;;;9.30;99.90;;;;;;5016358;28;20194;-81
2023/10/15 03:57:23;;;;;;;0.40;0.20;;;9.30;99.90;;;;;;5016559;28;20745;-80
2023/10/15 03:59:52;;;;;;;0.40;0.20;;;;;;;;;;5016480;28;20837;-79
2023/10/15 04:02:39;;;;;;;0.40;0.20;;;9.20;99.90;;;;;;5024718;28;20193;-81
2023/10/15 04:05:08;;;;;;;0.70;0.50;;;9.20;99.90;;;;;;5018128;28;20209;-82
2023/10/15 04:07:39;;;;;;;0.40;0.25;;;9.20;99.90;;;;;;5017690;28;20205;-79
2023/10/15 04:10:08;;;;;;;0.40;0.30;;;9.30;99.90;;;;;;5018338;28;20237;-80
2023/10/15 04:12:35;;;;;;;0.35;0.20;;;9.40;99.90;;;;;;5022127;28;23209;-82
2023/10/15 04:15:02;;;;;;;0.40;0.25;;;9.40;99.90;;;;;;5021725;28;20233;-79
2023/10/15 04:17:29;;;;;;;0.40;0.20;;;9.40;99.90;;;;;;5019042;28;20767;-84
2023/10/15 04:19:55;;;;;;;0.40;0.20;;;9.40;99.90;;;;;;5040132;28;20185;-82
2023/10/15 04:22:21;;;;;;;0.40;0.30;;;9.30;99.90;;;;;;5019713;28;20198;-80
2023/10/15 04:24:47;;;;;;;0.40;0.30;;;9.20;99.90;;;;;;5020504;28;20881;-80
2023/10/15 04:27:17;;;;;;;0.40;0.30;;;9.20;99.90;;;;;;5026545;28;20566;-77
2023/10/15 04:29:55;;;;;;;0.40;0.20;;;9.20;99.90;;;;;;5020248;28;20631;-81
2023/10/15 04:34:53;;;;;;;0.40;0.20;;;9.10;99.90;;;;;;5022729;28;20200;-81
2023/10/15 04:37:20;;;;;;;0.40;0.30;;;9.10;99.90;;;;;;5022948;28;20186;-82
2023/10/15 04:39:51;;;;;;;0.50;0.50;;;9.10;99.90;;;;;;5024541;28;20192;-80
2023/10/15 04:42:35;;;;;;;1.75;1.65;;;9.10;99.90;;;;;;5019017;28;20757;-81
2023/10/15 04:45:01;;;;;;;0.52;0.47;;;9.10;99.90;;;;;;5024305;28;20248;-78
2023/10/15 04:47:28;;;;;;;0.40;0.30;;;9.10;99.90;;;;;;5020838;28;20217;-80
2023/10/15 04:49:57;;;;;;;0.40;0.25;;;9.10;99.90;;;;;;5024526;28;20267;-80
2023/10/15 04:52:24;;;;;;;0.40;0.20;;;9.00;99.90;;;;;;5019165;28;20205;-79
2023/10/15 04:54:50;;;;;;;0.40;0.30;;;9.00;99.90;;;;;;5021668;28;21721;-82
2023/10/15 04:57:16;;;;;;;0.40;0.30;;;8.90;99.90;;;;;;5023268;28;20204;-77
2023/10/15 04:59:42;;;;;;;0.40;0.20;;;8.90;99.90;;;;;;5012401;28;20206;-82
2023/10/15 05:02:08;;;;;;;0.40;0.30;;;9.00;99.90;;;;;;5019238;28;20205;-79
2023/10/15 05:04:34;;;;;;;0.80;0.80;;;8.90;99.90;;;;;;5019207;28;20189;-79
2023/10/15 05:06:59;;;;;;;0.40;0.30;;;8.80;99.90;;;;;;5019751;28;20519;-84
2023/10/15 05:09:27;;;;;;;0.40;0.20;;;8.80;99.90;;;;;;5018959;28;20217;-81
2023/10/15 05:11:53;;;;;;;0.30;0.20;;;8.70;99.90;;;;;;5015600;28;20185;-79
2023/10/15 05:14:21;;;;;;;0.40;0.30;;;8.70;99.90;;;;;;5030310;28;20335;-81
2023/10/15 05:16:46;;;;;;;0.40;0.20;;;8.60;99.90;;;;;;5019489;28;20209;-81
2023/10/15 05:19:17;;;;;;;0.40;0.30;;;8.60;99.90;;;;;;5024823;28;20204;-84
2023/10/15 05:21:44;;;;;;;0.40;0.20;;;8.50;99.90;;;;;;5026891;28;20598;-81
2023/10/15 05:24:09;;;;;;;0.40;0.20;;;8.40;99.90;;;;;;5028743;28;20190;-82
2023/10/15 05:26:35;;;;;;;0.60;0.60;;;8.40;99.90;;;;;;5024360;28;20209;-83
2023/10/15 05:29:01;;;;;;;0.40;0.30;;;;;;;;;;5023683;28;20217;-80
2023/10/15 05:31:26;;;;;;;1.00;0.90;;;8.30;99.90;;;;;;5035441;28;20190;-78
2023/10/15 05:33:52;;;;;;;0.40;0.20;;;8.30;99.90;;;;;;5009209;28;20490;-79
2023/10/15 05:36:18;;;;;;;0.40;0.20;;;8.40;99.90;;;;;;5011801;28;20213;-80
2023/10/15 05:38:43;;;;;;;0.40;0.20;;;8.40;99.90;;;;;;5015735;28;20277;-78
2023/10/15 05:41:09;;;;;;;0.30;0.20;;;8.40;99.90;;;;;;5017318;28;20586;-80
2023/10/15 05:43:35;;;;;;;0.40;0.20;;;8.40;99.90;;;;;;5019518;28;20202;-76
2023/10/15 05:46:00;;;;;;;0.40;0.23;;;8.40;99.90;;;;;;5032969;28;20205;-84
2023/10/15 05:48:26;;;;;;;0.40;0.30;;;8.30;99.90;;;;;;5022098;28;20190;-79
2023/10/15 05:50:51;;;;;;;0.40;0.40;;;8.30;99.90;;;;;;5035529;28;20233;-82
2023/10/15 05:53:17;;;;;;;0.40;0.20;;;8.30;99.90;;;;;;5024298;28;20448;-83
2023/10/15 05:55:43;;;;;;;0.40;0.30;;;8.30;99.90;;;;;;5016192;28;20232;-80
2023/10/15 05:58:09;;;;;;;0.40;0.20;;;8.30;99.90;;;;;;5015470;28;20208;-80
2023/10/15 06:00:41;;;;;;;0.40;0.20;;;8.20;99.90;;;;;;5016735;28;20487;-80
2023/10/15 06:03:09;;;;;;;0.85;0.85;;;8.20;99.90;;;;;;5014259;28;20746;-83
2023/10/15 06:05:35;;;;;;;0.40;0.30;;;8.30;99.90;;;;;;5018650;28;20206;-84
2023/10/15 06:08:00;;;;;;;0.40;0.40;;;8.30;99.90;;;;;;5010070;28;20185;-83
2023/10/15 06:10:29;;;;;;;0.40;0.30;;;8.30;99.90;;;;;;5021241;28;20559;-80
2023/10/15 06:12:54;;;;;;;0.40;0.35;;;8.30;99.90;;;;;;5020717;28;20178;-82
2023/10/15 06:15:20;;;;;;;0.40;0.20;;;8.20;99.90;;;;;;5035676;28;20594;-82
2023/10/15 06:17:46;;;;;;;1.60;1.33;;;8.30;99.90;;;;;;5019421;28;20235;-81
2023/10/15 06:20:15;;;;;;;0.68;0.68;;;8.30;99.90;;;;;;5022382;28;20193;-79
2023/10/15 06:22:45;;;;;;;0.40;0.30;;;8.30;99.90;;;;;;5026720;28;20201;-82
2023/10/15 06:25:12;;;;;;;0.40;0.20;;;8.40;99.90;;;;;;5017665;28;20221;-81
2023/10/15 06:27:38;;;;;;;0.30;0.20;;;8.40;99.90;;;;;;5023483;28;20194;-81
2023/10/15 06:30:05;;;;;;;0.40;0.30;;;8.40;99.90;;;;;;5020868;28;20292;-79
2023/10/15 06:32:32;;;;;;;0.30;0.20;;;8.50;99.90;;;;;;5029246;28;22060;-79
2023/10/15 06:34:58;;;;;;;0.40;0.20;;;8.40;99.90;;;;;;5015783;28;20762;-80
2023/10/15 06:37:24;;;;;;;0.32;0.20;;;8.50;99.90;;;;;;5016404;28;20182;-82
2023/10/15 06:39:49;;;;;;;0.70;0.70;;;8.60;99.90;;;;;;5022040;28;20204;-79
2023/10/15 06:42:15;;;;;;;0.40;0.20;;;8.70;99.90;;;;;;5020606;28;20838;-79
2023/10/15 06:44:40;;;;;;;0.37;0.20;;;8.70;99.90;;;;;;5013167;28;20276;-83
2023/10/15 06:47:06;;;;;;;0.90;0.90;;;8.80;99.90;;;;;;5027992;28;20343;-77
2023/10/15 06:49:31;;;;;;;0.30;0.20;;;8.80;99.90;;;;;;5017278;28;20285;-81
2023/10/15 06:51:57;;;;;;;0.50;0.50;;;8.80;99.90;;;;;;5026971;28;20671;-82
2023/10/15 06:54:22;;;;;;;0.40;0.30;;;8.90;99.90;;;;;;5023453;28;20196;-81
2023/10/15 06:56:48;;;;;;;0.40;0.20;;;8.90;99.90;;;;;;5023491;28;20221;-81
2023/10/15 06:59:17;;;;;;;0.40;0.30;;;8.90;99.90;;;;;;5014122;28;20189;-78
2023/10/15 07:01:43;;;;;;;0.40;0.20;;;8.90;99.90;;;;;;5008969;28;20712;-80
2023/10/15 07:04:11;;;;;;;0.30;0.20;;;8.90;99.90;;;;;;5024771;28;20253;-76
2023/10/15 07:06:37;;;;;;;0.40;0.30;;;8.90;99.90;;;;;;5039301;28;20206;-82
2023/10/15 07:09:02;;;;;;;0.40;0.30;;;8.90;99.90;;;;;;5018765;28;20209;-83
2023/10/15 07:11:28;;;;;;;1.90;1.07;;;9.00;99.90;;;;;;5027477;28;20268;-82
2023/10/15 07:13:54;;;;;;;0.40;0.30;;;9.00;99.90;;;;;;5017843;28;20186;-80
2023/10/15 07:16:20;;;;;;;0.40;0.20;;;9.00;99.90;;;;;;5016180;28;20206;-79
2023/10/15 07:18:45;;;;;;;0.30;0.30;;;9.10;99.90;;;;;;5021442;28;20209;-83
2023/10/15 07:21:11;;;;;;;0.40;0.20;;;9.20;99.90;;;;;;5025657;28;20279;-84
2023/10/15 07:23:37;;;;;;;0.40;0.20;;;9.20;99.90;;;;;;5024178;28;20201;-82
2023/10/15 07:26:03;;;;;;;0.50;0.40;;;9.40;99.90;;;;;;5022506;28;20228;-81
2023/10/15 07:28:29;;;;;;;0.40;0.20;;;9.60;99.90;;;;;;5021711;28;20440;-78
2023/10/15 07:30:55;;;;;;;0.40;0.20;;;9.80;99.90;;;;;;5004073;28;20444;-78
2023/10/15 07:33:21;;;;;;;0.40;0.30;;;9.60;99.90;;;;;;5013624;28;20440;-80
2023/10/15 07:35:48;;;;;;;0.40;0.20;;;10.10;99.90;;;;;;5016080;28;20208;-79
2023/10/15 07:38:14;;;;;;;0.52;0.40;;;10.40;99.90;;;;;;5015077;28;21052;-79
2023/10/15 07:40:41;;;;;;;0.40;0.20;;;10.50;99.90;;;;;;5015746;28;20190;-80
2023/10/15 07:43:08;;;;;;;0.40;0.20;;;10.30;99.90;;;;;;5014745;28;20178;-80
2023/10/15 07:45:35;;;;;;;0.40;0.20;;;10.30;99.90;;;;;;5031254;28;20221;-80
2023/10/15 07:48:03;;;;;;;0.40;0.20;;;10.40;99.90;;;;;;5013443;28;22038;-78
2023/10/15 07:50:31;;;;;;;0.40;0.30;;;10.30;99.90;;;;;;5023056;28;20217;-78
2023/10/15 07:52:57;;;;;;;0.40;0.30;;;;;;;;;;5030051;28;20223;-79
2023/10/15 07:55:23;;;;;;;0.38;0.20;;;9.90;99.90;;;;;;5019020;28;20221;-81
2023/10/15 07:57:49;;;;;;;0.40;0.30;;;10.10;99.90;;;;;;5024827;28;20463;-82
2023/10/15 08:00:16;;;;;;;0.40;0.20;;;11.30;99.90;;;;;;5027205;28;20646;-81
2023/10/15 08:02:43;;;;;;;0.40;0.20;;;11.50;99.90;;;;;;5019196;28;20209;-76
2023/10/15 08:05:08;;;;;;;0.40;0.30;;;11.20;99.90;;;;;;5019033;28;20209;-79
2023/10/15 08:07:36;;;;;;;2.30;0.60;;;11.10;99.90;;;;;;5033551;28;20190;-83
2023/10/15 08:10:03;;;;;;;0.40;0.30;;;11.10;99.90;;;;;;5023756;28;20201;-81
2023/10/15 08:12:28;;;;;;;0.40;0.20;;;11.30;99.90;;;;;;5020756;28;20182;-80
2023/10/15 08:14:55;;;;;;;0.40;0.20;;;13.80;99.90;;;;;;5016046;28;20974;-80
2023/10/15 08:17:23;;;;;;;0.40;0.20;;;13.90;99.90;;;;;;5016864;28;20189;-77
2023/10/15 08:19:48;;;;;;;0.93;0.50;;;13.90;99.90;;;;;;5014852;28;20452;-79
2023/10/15 08:22:14;;;;;;;0.40;0.20;;;12.70;99.90;;;;;;5020186;28;20447;-80
2023/10/15 08:24:39;;;;;;;0.40;0.40;;;11.80;99.90;;;;;;5029400;28;20839;-79
2023/10/15 08:27:06;;;;;;;0.40;0.20;;;11.50;99.90;;;;;;5019219;28;20217;-81
2023/10/15 08:29:31;;;;;;;0.52;0.52;;;11.00;99.90;;;;;;5035428;28;20213;-78
2023/10/15 08:31:57;;;;;;;0.40;0.20;;;10.80;99.90;;;;;;5016752;28;20201;-82
2023/10/15 08:34:23;;;;;;;14.93;2.33;;;10.50;99.90;;;;;;5016825;28;20224;-83
2023/10/15 08:36:49;;;;;;;0.40;0.30;;;11.40;99.90;;;;;;5010388;28;20209;-80
2023/10/15 08:39:15;;;;;;;0.40;0.30;;;13.10;99.90;;;;;;5019880;28;20452;-85
2023/10/15 08:41:43;;;;;;;0.60;0.60;;;14.30;99.90;;;;;;5015191;28;20196;-78
2023/10/15 08:44:10;;;;;;;0.40;0.20;;;14.40;99.90;;;;;;5034605;28;20264;-83
2023/10/15 08:46:37;;;;;;;0.40;0.20;;;14.30;99.90;;;;;;5021588;28;20586;-78
2023/10/15 08:49:08;;;;;;;0.40;0.20;;;13.80;99.90;;;;;;5013359;28;20467;-84
2023/10/15 08:51:36;;;;;;;0.40;0.20;;;13.20;99.90;;;;;;5038214;28;20911;-82
2023/10/15 08:54:04;;;;;;;0.40;0.30;;;12.70;99.90;;;;;;5021401;28;20623;-80
2023/10/15 08:56:33;;;;;;;0.50;0.40;;;12.00;99.90;;;;;;5021082;28;20223;-83
2023/10/15 08:59:00;;;;;;;0.40;0.20;;;11.90;99.90;;;;;;5020797;28;20237;-78
2023/10/15 09:01:26;;;;;;;0.40;0.20;;;12.60;99.90;;;;;;5034094;28;20190;-79
2023/10/15 09:03:52;;;;;;;0.50;0.40;;;12.50;99.90;;;;;;5016203;28;20686;-81
2023/10/15 09:06:22;;;;;;;0.40;0.20;;;12.50;99.90;;;;;;5017747;28;20681;-80
2023/10/15 09:08:50;;;;;;;0.40;0.30;;;12.30;99.90;;;;;;5024848;28;20356;-83
2023/10/15 09:11:16;;;;;;;0.40;0.20;;;12.10;99.90;;;;;;5025500;28;20189;-79
2023/10/15 09:13:42;;;;;;;0.60;0.47;;;12.00;99.90;;;;;;5018823;28;20197;-79
2023/10/15 09:16:08;;;;;;;0.40;0.20;;;11.20;99.90;;;;;;5018800;28;20304;-80
2023/10/15 09:18:37;;;;;;;0.85;0.85;;;11.10;99.90;;;;;;5020311;28;20178;-80
2023/10/15 09:21:04;;;;;;;0.40;0.30;;;11.00;99.90;;;;;;5017182;28;20178;-78
2023/10/15 09:23:35;;;;;;;0.40;0.20;;;11.30;99.90;;;;;;5041394;28;20194;-81
2023/10/15 09:26:01;;;;;;;2.15;1.85;;;11.60;99.90;;;;;;5011628;28;20729;-80
2023/10/15 09:28:27;;;;;;;0.40;0.20;;;12.30;99.90;;;;;;5023071;28;22323;-81
2023/10/15 09:31:03;;;;;;;0.40;0.20;;;12.80;99.90;;;;;;5012311;28;20287;-79
2023/10/15 09:33:29;;;;;;;0.40;0.20;;;14.10;99.90;;;;;;5018087;28;20186;-82
2023/10/15 09:35:55;;;;;;;0.40;0.30;;;13.70;99.90;;;;;;5020236;28;20492;-81
2023/10/15 09:38:21;;;;;;;0.50;0.40;;;12.90;99.90;;;;;;5018763;28;20472;-78
2023/10/15 09:40:47;;;;;;;0.40;0.30;;;13.40;99.90;;;;;;5020255;28;20505;-82
2023/10/15 09:43:13;;;;;;;0.40;0.20;;;13.70;99.90;;;;;;5020841;28;20978;-86
2023/10/15 09:45:41;;;;;;;0.50;0.40;;;13.60;99.90;;;;;;5017836;28;22293;-82
2023/10/15 09:48:09;;;;;;;0.40;0.30;;;12.80;99.90;;;;;;5028859;28;20248;-80
2023/10/15 09:50:38;;;;;;;0.40;0.20;;;11.90;99.90;;;;;;5012493;28;20205;-80
2023/10/15 09:53:12;;;;;;;0.50;0.50;;;11.30;99.90;;;;;;5017308;28;20194;-80
2023/10/15 09:55:40;;;;;;;0.40;0.30;;;11.60;99.90;;;;;;5016725;28;20241;-82
2023/10/15 09:58:06;;;;;;;0.40;0.30;;;12.00;99.90;;;;;;5010463;28;20203;-81
2023/10/15 10:03:47;;;;;;;0.40;0.20;;;12.60;99.90;;;;;;5011135;28;20197;-83
2023/10/15 10:06:47;;;;;;;0.40;0.30;;;12.40;99.90;;;;;;5012314;28;20213;-82
2023/10/15 10:09:21;;;;;;;0.40;0.20;;;12.10;99.90;;;;;;5028854;28;20292;-79
2023/10/15 10:11:59;;;;;;;0.40;0.30;;;12.10;99.90;;;;;;5017635;28;20188;-81
2023/10/15 10:14:54;;;;;;;0.40;0.20;;;12.10;99.90;;;;;;5016547;28;20610;-81
2023/10/15 10:17:21;;;;;;;0.40;0.30;;;11.80;99.90;;;;;;5033501;28;20232;-83
2023/10/15 10:19:52;;;;;;;0.40;0.30;;;11.50;99.90;;;;;;5019056;28;20193;-81
2023/10/15 10:22:26;;;;;;;0.40;0.30;;;11.50;99.90;;;;;;5016545;28;20201;-85
2023/10/15 10:24:59;;;;;;;0.40;0.30;;;11.90;99.90;;;;;;5027650;28;20201;-81
2023/10/15 10:27:26;;;;;;;0.40;0.20;;;11.90;99.90;;;;;;5028958;28;20185;-81
2023/10/15 10:29:53;;;;;;;0.40;0.20;;;12.00;99.90;;;;;;5013225;28;20229;-78
2023/10/15 10:32:21;;;;;;;0.40;0.20;;;11.70;99.90;;;;;;5016934;28;20217;-84
2023/10/15 10:35:18;;;;;;;0.52;0.50;;;11.20;99.90;;;;;;5018178;28;20981;-80
2023/10/15 10:38:06;;;;;;;0.40;0.20;;;11.00;99.90;;;;;;5022295;28;20193;-77
2023/10/15 10:40:59;;;;;;;0.40;0.30;;;10.60;99.90;;;;;;5029957;28;20214;-77
2023/10/15 10:43:27;;;;;;;0.40;0.30;;;12.20;99.90;;;;;;5009588;28;20284;-82
2023/10/15 10:46:00;;;;;;;0.40;0.30;;;10.40;99.90;;;;;;5016166;28;20304;-83
2023/10/15 10:48:33;;;;;;;0.40;0.20;;;10.40;99.90;;;;;;5012492;28;20777;-80
2023/10/15 10:51:11;;;;;;;0.40;0.30;;;10.40;99.90;;;;;;5028312;28;20193;-84
2023/10/15 10:53:56;;;;;;;0.40;0.20;;;10.40;99.90;;;;;;5010115;28;20564;-83
2023/10/15 10:56:40;;;;;;;0.40;0.20;;;10.30;99.90;;;;;;5011642;28;20717;-84
2023/10/15 10:59:10;;;;;;;0.40;0.20;;;10.20;99.90;;;;;;5023653;28;20219;-76
2023/10/15 11:01:37;;;;;;;0.93;0.93;;;10.30;99.90;;;;;;5023819;28;20277;-82
2023/10/15 11:04:04;;;;;;;0.40;0.20;;;10.20;99.90;;;;;;5019802;28;20186;-79
2023/10/15 11:06:32;;;;;;;0.40;0.20;;;10.20;99.90;;;;;;5011141;28;20217;-82
2023/10/15 11:08:58;;;;;;;0.40;0.20;;;10.20;99.90;;;;;;5016916;28;20223;-82
2023/10/15 11:11:24;;;;;;;0.50;0.40;;;10.30;99.90;;;;;;5019506;28;20189;-77
2023/10/15 11:13:50;;;;;;;0.40;0.20;;;10.50;99.90;;;;;;5014669;28;20217;-83
2023/10/15 11:16:16;;;;;;;0.40;0.20;;;11.00;99.90;;;;;;5018496;28;20205;-82
2023/10/15 11:18:45;;;;;;;0.40;0.20;;;11.10;99.90;;;;;;5014414;28;20200;-82
2023/10/15 11:21:10;;;;;;;0.40;0.20;;;11.20;99.90;;;;;;5015186;28;20272;-85
2023/10/15 11:23:38;;;;;;;0.40;0.20;;;11.30;99.90;;;;;;5010206;28;20835;-79
2023/10/15 11:26:04;;;;;;;0.40;0.30;;;11.10;99.90;;;;;;5022687;28;20220;-81
2023/10/15 11:28:30;;;;;;;1.15;0.52;;;11.20;99.90;;;;;;5030372;28;20584;-82
2023/10/15 11:30:56;;;;;;;0.40;0.20;;;11.60;99.90;;;;;;5023694;28;20190;-84
2023/10/15 11:33:23;;;;;;;0.40;0.30;;;12.00;99.90;;;;;;5014326;28;20186;-82
2023/10/15 11:35:49;;;;;;;0.40;0.20;;;12.10;99.90;;;;;;5019416;28;20205;-83
2023/10/15 11:38:17;;;;;;;3.73;2.30;;;11.50;99.90;;;;;;5013404;28;20877;-84
2023/10/15 11:40:45;;;;;;;0.40;0.20;;;11.40;99.90;;;;;;5015812;28;20440;-83
2023/10/15 11:43:18;;;;;;;0.40;0.20;;;11.30;99.90;;;;;;5015624;28;20204;-83
2023/10/15 11:45:47;;;;;;;0.40;0.30;;;11.40;99.90;;;;;;5030000;28;22136;-80
2023/10/15 11:48:21;;;;;;;0.40;0.22;;;11.20;99.90;;;;;;5018881;28;21011;-76
2023/10/15 11:50:48;;;;;;;0.40;0.20;;;11.10;99.90;;;;;;5031518;28;20742;-82
2023/10/15 11:53:20;;;;;;;0.40;0.20;;;11.40;99.90;;;;;;5011219;28;20182;-81
2023/10/15 11:55:52;;;;;;;0.40;0.30;;;10.70;99.90;;;;;;5016823;28;23927;-81
2023/10/15 11:58:19;;;;;;;0.40;0.30;;;10.70;99.90;;;;;;5012204;28;20189;-78
2023/10/15 12:00:48;;;;;;;0.40;0.30;;;10.90;99.90;;;;;;5024456;28;20300;-84
2023/10/15 12:03:21;;;;;;;0.40;0.30;;;11.40;99.90;;;;;;5028862;28;20220;-79
2023/10/15 12:05:49;;;;;;;0.40;0.30;;;11.80;99.90;;;;;;5027343;28;20878;-80
2023/10/15 12:08:16;;;;;;;0.40;0.20;;;11.70;99.90;;;;;;5012419;28;20219;-79
2023/10/15 12:10:42;;;;;;;0.40;0.30;;;11.60;99.90;;;;;;5018715;28;20649;-82
2023/10/15 12:13:12;;;;;;;0.40;0.30;;;11.50;99.90;;;;;;5018001;28;20293;-82
2023/10/15 12:15:40;;;;;;;0.40;0.20;;;11.50;99.90;;;;;;5018073;28;20212;-83
2023/10/15 12:18:06;;;;;;;0.65;0.65;;;11.50;99.90;;;;;;5024205;28;20212;-81
2023/10/15 12:20:31;;;;;;;0.40;0.20;;;11.40;99.90;;;;;;5009625;28;20189;-82
2023/10/15 12:22:57;;;;;;;0.60;0.60;;;11.30;99.90;;;;;;5017172;28;21987;-81
2023/10/15 12:25:22;;;;;;;0.40;0.20;;;11.00;99.90;;;;;;5029766;28;20217;-80
2023/10/15 12:27:48;;;;;;;0.40;0.20;;;11.00;99.90;;;;;;5008321;28;20202;-82
2023/10/15 12:30:23;;;;;;;0.40;0.20;;;11.20;99.90;;;;;;5010689;28;20248;-82
2023/10/15 12:32:50;;;;;;;0.40;0.20;;;11.10;99.90;;;;;;5024607;28;20249;-81
2023/10/15 12:35:19;;;;;;;0.40;0.20;;;10.90;99.90;;;;;;5022549;28;20213;-79
2023/10/15 12:37:45;;;;;;;0.40;0.22;;;10.90;99.90;;;;;;5021573;28;20211;-83
2023/10/15 12:40:24;;;;;;;0.40;0.20;;;10.90;99.90;;;;;;5024319;28;20194;-81
2023/10/15 12:42:51;;;;;;;0.40;0.20;;;11.00;99.90;;;;;;5021220;28;20193;-82
2023/10/15 12:45:19;;;;;;;0.40;0.30;;;11.40;99.90;;;;;;5017503;28;20213;-82
2023/10/15 12:47:45;;;;;;;0.40;0.20;;;12.00;99.90;;;;;;5034705;28;20182;-84
2023/10/15 12:50:16;;;;;;;0.40;0.30;;;12.50;99.90;;;;;;5022236;28;20209;-81
2023/10/15 12:52:44;;;;;;;0.40;0.30;;;12.90;99.90;;;;;;5017464;28;20185;-83
2023/10/15 12:55:18;;;;;;;0.40;0.20;;;13.20;99.90;;;;;;5013636;28;20221;-82
2023/10/15 12:57:46;;;;;;;0.40;0.20;;;13.30;99.90;;;;;;5018906;28;20275;-79
2023/10/15 13:00:18;;;;;;;0.40;0.20;;;13.60;99.90;;;;;;5019442;28;20273;-80
2023/10/15 13:02:45;;;;;;;0.40;0.25;;;13.60;99.90;;;;;;5020562;28;20931;-81
2023/10/15 13:05:13;;;;;;;0.40;0.30;;;13.10;99.90;;;;;;5014217;28;20781;-83
2023/10/15 13:07:40;;;;;;;0.40;0.20;;;12.80;99.90;;;;;;5011162;28;20276;-82
2023/10/15 13:10:08;;;;;;;0.40;0.30;;;12.40;99.90;;;;;;5012040;28;20302;-82
2023/10/15 13:12:33;;;;;;;0.40;0.30;;;12.20;99.90;;;;;;5007917;28;20238;-80
2023/10/15 13:14:59;;;;;;;0.40;0.20;;;11.70;99.90;;;;;;5019026;28;20305;-81
2023/10/15 13:17:25;;;;;;;0.40;0.20;;;11.60;99.90;;;;;;5016967;28;20216;-81
2023/10/15 13:19:50;;;;;;;0.40;0.30;;;11.40;99.90;;;;;;5025002;28;20205;-83
2023/10/15 13:22:20;;;;;;;0.40;0.30;;;11.40;99.90;;;;;;5014760;28;20198;-82
2023/10/15 13:24:51;;;;;;;0.40;0.20;;;11.30;99.90;;;;;;5024712;28;20198;-84
2023/10/15 13:27:16;;;;;;;0.40;0.30;;;11.10;99.90;;;;;;5174753;22;20739;-83